sensor_id;sensor_type;location;lat;lon;timestamp;P1;durP1;ratioP1;P2;durP2;ratioP2
49860;SDS011;35761;48.826;9.238;2024-01-15T00:02:03;24.52;;;10.27;;
49860;SDS011;35761;48.826;9.238;2024-01-15T00:04:28;24.23;;;9.98;;
49860;SDS011;35761;48.826;9.238;2024-01-15T00:06:54;29.25;;;11.55;;
49860;SDS011;35761;48.826;9.238;2024-01-15T00:09:19;25.30;;;10.68;;
49860;SDS011;35761;48.826;9.238;2024-01-15T00:11:45;26.42;;;10.70;;
49860;SDS011;35761;48.826;9.238;2024-01-15T00:14:11;28.13;;;11.18;;
49860;SDS011;35761;48.826;9.238;2024-01-15T00:16:40;27.95;;;10.43;;
49860;SDS011;35761;48.826;9.238;2024-01-15T00:19:05;24.70;;;10.07;;
49860;SDS011;35761;48.826;9.238;2024-01-15T00:21:31;25.67;;;10.30;;
49860;SDS011;35761;48.826;9.238;2024-01-15T00:23:56;24.20;;;10.25;;
49860;SDS011;35761;48.826;9.238;2024-01-15T00:26:22;25.10;;;10.68;;
49860;SDS011;35761;48.826;9.238;2024-01-15T00:28:48;26.20;;;11.52;;
49860;SDS011;35761;48.826;9.238;2024-01-15T00:31:15;29.75;;;11.60;;
49860;SDS011;35761;48.826;9.238;2024-01-15T00:33:41;28.98;;;10.20;;
49860;SDS011;35761;48.826;9.238;2024-01-15T00:36:07;25.02;;;10.32;;
49860;SDS011;35761;48.826;9.238;2024-01-15T00:38:32;24.90;;;10.50;;
49860;SDS011;35761;48.826;9.238;2024-01-15T00:40:58;25.55;;;10.88;;
49860;SDS011;35761;48.826;9.238;2024-01-15T00:43:23;26.80;;;11.55;;
49860;SDS011;35761;48.826;9.238;2024-01-15T00:45:49;23.63;;;10.48;;
49860;SDS011;35761;48.826;9.238;2024-01-15T00:48:14;26.52;;;10.95;;
49860;SDS011;35761;48.826;9.238;2024-01-15T00:50:40;22.88;;;10.32;;
49860;SDS011;35761;48.826;9.238;2024-01-15T00:53:05;23.45;;;10.13;;
49860;SDS011;35761;48.826;9.238;2024-01-15T00:55:30;24.50;;;10.65;;
49860;SDS011;35761;48.826;9.238;2024-01-15T00:57:56;26.45;;;10.57;;
49860;SDS011;35761;48.826;9.238;2024-01-15T01:00:21;23.00;;;9.32;;
49860;SDS011;35761;48.826;9.238;2024-01-15T01:02:47;24.00;;;9.73;;
49860;SDS011;35761;48.826;9.238;2024-01-15T01:05:12;26.38;;;10.35;;
49860;SDS011;35761;48.826;9.238;2024-01-15T01:07:38;20.95;;;9.15;;
49860;SDS011;35761;48.826;9.238;2024-01-15T01:10:03;21.55;;;9.82;;
49860;SDS011;35761;48.826;9.238;2024-01-15T01:12:29;26.27;;;11.07;;
49860;SDS011;35761;48.826;9.238;2024-01-15T01:14:55;27.08;;;10.23;;
49860;SDS011;35761;48.826;9.238;2024-01-15T01:17:21;23.80;;;9.43;;
49860;SDS011;35761;48.826;9.238;2024-01-15T01:19:47;24.45;;;10.20;;
49860;SDS011;35761;48.826;9.238;2024-01-15T01:22:12;22.60;;;9.98;;
49860;SDS011;35761;48.826;9.238;2024-01-15T01:24:38;22.55;;;9.35;;
49860;SDS011;35761;48.826;9.238;2024-01-15T01:27:03;19.75;;;9.23;;
49860;SDS011;35761;48.826;9.238;2024-01-15T01:29:29;22.45;;;9.40;;
49860;SDS011;35761;48.826;9.238;2024-01-15T01:31:54;23.67;;;9.63;;
49860;SDS011;35761;48.826;9.238;2024-01-15T01:34:21;22.30;;;9.60;;
49860;SDS011;35761;48.826;9.238;2024-01-15T01:36:47;23.45;;;9.45;;
49860;SDS011;35761;48.826;9.238;2024-01-15T01:39:12;26.20;;;10.18;;
49860;SDS011;35761;48.826;9.238;2024-01-15T01:41:38;22.33;;;9.05;;
49860;SDS011;35761;48.826;9.238;2024-01-15T01:44:04;22.50;;;9.50;;
49860;SDS011;35761;48.826;9.238;2024-01-15T01:46:30;21.17;;;9.52;;
49860;SDS011;35761;48.826;9.238;2024-01-15T01:48:56;24.52;;;9.70;;
49860;SDS011;35761;48.826;9.238;2024-01-15T01:51:21;21.15;;;9.05;;
49860;SDS011;35761;48.826;9.238;2024-01-15T01:53:48;23.45;;;9.80;;
49860;SDS011;35761;48.826;9.238;2024-01-15T01:56:14;20.40;;;8.88;;
49860;SDS011;35761;48.826;9.238;2024-01-15T01:58:40;19.35;;;8.27;;
49860;SDS011;35761;48.826;9.238;2024-01-15T02:01:05;20.27;;;8.40;;
49860;SDS011;35761;48.826;9.238;2024-01-15T02:03:31;19.55;;;8.65;;
49860;SDS011;35761;48.826;9.238;2024-01-15T02:05:57;19.75;;;9.50;;
49860;SDS011;35761;48.826;9.238;2024-01-15T02:08:24;22.80;;;9.77;;
49860;SDS011;35761;48.826;9.238;2024-01-15T02:10:50;23.13;;;8.68;;
49860;SDS011;35761;48.826;9.238;2024-01-15T02:13:16;21.33;;;8.90;;
49860;SDS011;35761;48.826;9.238;2024-01-15T02:15:42;24.48;;;9.07;;
49860;SDS011;35761;48.826;9.238;2024-01-15T02:18:08;22.35;;;8.52;;
49860;SDS011;35761;48.826;9.238;2024-01-15T02:20:33;20.33;;;8.55;;
49860;SDS011;35761;48.826;9.238;2024-01-15T02:25:36;19.15;;;8.30;;
49860;SDS011;35761;48.826;9.238;2024-01-15T02:28:05;20.65;;;8.80;;
49860;SDS011;35761;48.826;9.238;2024-01-15T02:30:31;20.00;;;8.23;;
49860;SDS011;35761;48.826;9.238;2024-01-15T02:32:57;21.90;;;8.57;;
49860;SDS011;35761;48.826;9.238;2024-01-15T02:35:23;20.20;;;8.20;;
49860;SDS011;35761;48.826;9.238;2024-01-15T02:37:48;20.67;;;8.43;;
49860;SDS011;35761;48.826;9.238;2024-01-15T02:40:14;21.85;;;8.10;;
49860;SDS011;35761;48.826;9.238;2024-01-15T02:42:39;20.10;;;8.60;;
49860;SDS011;35761;48.826;9.238;2024-01-15T02:45:05;22.23;;;8.98;;
49860;SDS011;35761;48.826;9.238;2024-01-15T02:47:30;22.83;;;8.55;;
49860;SDS011;35761;48.826;9.238;2024-01-15T02:49:56;21.15;;;8.50;;
49860;SDS011;35761;48.826;9.238;2024-01-15T02:52:21;18.55;;;8.25;;
49860;SDS011;35761;48.826;9.238;2024-01-15T02:54:46;20.67;;;8.85;;
49860;SDS011;35761;48.826;9.238;2024-01-15T02:57:12;21.08;;;8.43;;
49860;SDS011;35761;48.826;9.238;2024-01-15T02:59:37;21.17;;;9.32;;
49860;SDS011;35761;48.826;9.238;2024-01-15T03:02:03;20.15;;;8.18;;
49860;SDS011;35761;48.826;9.238;2024-01-15T03:04:28;20.75;;;8.00;;
49860;SDS011;35761;48.826;9.238;2024-01-15T03:06:54;21.70;;;8.55;;
49860;SDS011;35761;48.826;9.238;2024-01-15T03:09:19;22.90;;;8.73;;
49860;SDS011;35761;48.826;9.238;2024-01-15T03:11:45;23.98;;;9.95;;
49860;SDS011;35761;48.826;9.238;2024-01-15T03:14:10;21.17;;;8.63;;
49860;SDS011;35761;48.826;9.238;2024-01-15T03:16:36;18.58;;;8.57;;
49860;SDS011;35761;48.826;9.238;2024-01-15T03:19:01;18.35;;;8.02;;
49860;SDS011;35761;48.826;9.238;2024-01-15T03:21:26;27.05;;;9.15;;
49860;SDS011;35761;48.826;9.238;2024-01-15T03:23:52;20.17;;;7.75;;
49860;SDS011;35761;48.826;9.238;2024-01-15T03:26:17;20.92;;;7.97;;
49860;SDS011;35761;48.826;9.238;2024-01-15T03:28:43;22.80;;;8.57;;
49860;SDS011;35761;48.826;9.238;2024-01-15T03:31:08;24.55;;;9.35;;
49860;SDS011;35761;48.826;9.238;2024-01-15T03:33:34;22.45;;;10.32;;
49860;SDS011;35761;48.826;9.238;2024-01-15T03:35:59;20.40;;;8.95;;
49860;SDS011;35761;48.826;9.238;2024-01-15T03:38:26;21.60;;;8.35;;
49860;SDS011;35761;48.826;9.238;2024-01-15T03:40:53;18.50;;;7.90;;
49860;SDS011;35761;48.826;9.238;2024-01-15T03:43:18;22.23;;;8.27;;
49860;SDS011;35761;48.826;9.238;2024-01-15T03:45:44;20.92;;;8.68;;
49860;SDS011;35761;48.826;9.238;2024-01-15T03:48:09;19.90;;;8.60;;
49860;SDS011;35761;48.826;9.238;2024-01-15T03:50:35;19.75;;;8.95;;
49860;SDS011;35761;48.826;9.238;2024-01-15T03:53:00;20.30;;;8.35;;
49860;SDS011;35761;48.826;9.238;2024-01-15T03:55:25;18.90;;;8.13;;
49860;SDS011;35761;48.826;9.238;2024-01-15T03:57:51;22.00;;;8.75;;
49860;SDS011;35761;48.826;9.238;2024-01-15T04:00:16;20.55;;;8.45;;
49860;SDS011;35761;48.826;9.238;2024-01-15T04:02:43;19.38;;;8.73;;
49860;SDS011;35761;48.826;9.238;2024-01-15T04:05:09;18.10;;;7.72;;
49860;SDS011;35761;48.826;9.238;2024-01-15T04:07:34;18.13;;;7.25;;
49860;SDS011;35761;48.826;9.238;2024-01-15T04:10:00;21.50;;;8.40;;
49860;SDS011;35761;48.826;9.238;2024-01-15T04:12:25;20.95;;;7.32;;
49860;SDS011;35761;48.826;9.238;2024-01-15T04:14:51;21.20;;;8.23;;
49860;SDS011;35761;48.826;9.238;2024-01-15T04:17:16;18.73;;;8.18;;
49860;SDS011;35761;48.826;9.238;2024-01-15T04:19:45;20.10;;;7.90;;
49860;SDS011;35761;48.826;9.238;2024-01-15T04:22:13;17.48;;;7.07;;
49860;SDS011;35761;48.826;9.238;2024-01-15T04:24:39;19.27;;;8.20;;
49860;SDS011;35761;48.826;9.238;2024-01-15T04:27:04;17.08;;;7.55;;
49860;SDS011;35761;48.826;9.238;2024-01-15T04:29:30;16.75;;;6.38;;
49860;SDS011;35761;48.826;9.238;2024-01-15T04:31:56;17.15;;;7.00;;
49860;SDS011;35761;48.826;9.238;2024-01-15T04:34:21;18.60;;;7.25;;
49860;SDS011;35761;48.826;9.238;2024-01-15T04:36:47;14.38;;;6.68;;
49860;SDS011;35761;48.826;9.238;2024-01-15T04:39:12;16.67;;;6.35;;
49860;SDS011;35761;48.826;9.238;2024-01-15T04:41:37;19.15;;;6.55;;
49860;SDS011;35761;48.826;9.238;2024-01-15T04:44:03;18.77;;;7.15;;
49860;SDS011;35761;48.826;9.238;2024-01-15T04:46:29;19.10;;;6.90;;
49860;SDS011;35761;48.826;9.238;2024-01-15T04:48:54;12.38;;;5.90;;
49860;SDS011;35761;48.826;9.238;2024-01-15T04:51:20;16.95;;;6.88;;
49860;SDS011;35761;48.826;9.238;2024-01-15T04:53:45;14.32;;;7.00;;
49860;SDS011;35761;48.826;9.238;2024-01-15T04:56:11;17.05;;;5.97;;
49860;SDS011;35761;48.826;9.238;2024-01-15T04:58:36;16.73;;;6.25;;
49860;SDS011;35761;48.826;9.238;2024-01-15T05:01:02;15.20;;;6.63;;
49860;SDS011;35761;48.826;9.238;2024-01-15T05:03:27;18.65;;;7.38;;
49860;SDS011;35761;48.826;9.238;2024-01-15T05:05:52;16.50;;;6.75;;
49860;SDS011;35761;48.826;9.238;2024-01-15T05:08:18;17.38;;;7.15;;
49860;SDS011;35761;48.826;9.238;2024-01-15T05:10:43;17.30;;;6.65;;
49860;SDS011;35761;48.826;9.238;2024-01-15T05:13:10;17.98;;;6.47;;
49860;SDS011;35761;48.826;9.238;2024-01-15T05:15:35;16.45;;;7.03;;
49860;SDS011;35761;48.826;9.238;2024-01-15T05:18:00;14.48;;;6.20;;
49860;SDS011;35761;48.826;9.238;2024-01-15T05:20:26;31.13;;;13.98;;
49860;SDS011;35761;48.826;9.238;2024-01-15T05:22:51;16.90;;;7.28;;
49860;SDS011;35761;48.826;9.238;2024-01-15T05:25:17;18.73;;;8.45;;
49860;SDS011;35761;48.826;9.238;2024-01-15T05:27:42;16.50;;;6.60;;
49860;SDS011;35761;48.826;9.238;2024-01-15T05:30:08;16.17;;;6.30;;
49860;SDS011;35761;48.826;9.238;2024-01-15T05:32:33;15.07;;;6.22;;
49860;SDS011;35761;48.826;9.238;2024-01-15T05:34:59;16.55;;;6.95;;
49860;SDS011;35761;48.826;9.238;2024-01-15T05:37:24;15.20;;;6.95;;
49860;SDS011;35761;48.826;9.238;2024-01-15T05:39:50;15.57;;;6.72;;
49860;SDS011;35761;48.826;9.238;2024-01-15T05:42:15;17.23;;;7.40;;
49860;SDS011;35761;48.826;9.238;2024-01-15T05:44:41;17.45;;;7.38;;
49860;SDS011;35761;48.826;9.238;2024-01-15T05:47:07;17.85;;;7.00;;
49860;SDS011;35761;48.826;9.238;2024-01-15T05:49:33;14.70;;;6.68;;
49860;SDS011;35761;48.826;9.238;2024-01-15T05:51:58;20.35;;;7.18;;
49860;SDS011;35761;48.826;9.238;2024-01-15T05:54:23;15.27;;;6.70;;
49860;SDS011;35761;48.826;9.238;2024-01-15T05:56:49;13.48;;;6.20;;
49860;SDS011;35761;48.826;9.238;2024-01-15T05:59:15;17.63;;;6.13;;
49860;SDS011;35761;48.826;9.238;2024-01-15T06:01:40;11.90;;;5.50;;
49860;SDS011;35761;48.826;9.238;2024-01-15T06:04:06;15.38;;;6.45;;
49860;SDS011;35761;48.826;9.238;2024-01-15T06:06:31;11.18;;;6.05;;
49860;SDS011;35761;48.826;9.238;2024-01-15T06:08:57;15.38;;;6.43;;
49860;SDS011;35761;48.826;9.238;2024-01-15T06:11:29;13.27;;;6.03;;
49860;SDS011;35761;48.826;9.238;2024-01-15T06:13:55;12.95;;;5.95;;
49860;SDS011;35761;48.826;9.238;2024-01-15T06:16:20;16.02;;;6.60;;
49860;SDS011;35761;48.826;9.238;2024-01-15T06:18:46;16.65;;;6.78;;
49860;SDS011;35761;48.826;9.238;2024-01-15T06:21:12;15.57;;;6.57;;
49860;SDS011;35761;48.826;9.238;2024-01-15T06:23:39;15.57;;;7.07;;
49860;SDS011;35761;48.826;9.238;2024-01-15T06:26:05;14.45;;;6.88;;
49860;SDS011;35761;48.826;9.238;2024-01-15T06:28:30;16.05;;;6.72;;
49860;SDS011;35761;48.826;9.238;2024-01-15T06:30:56;19.70;;;7.00;;
49860;SDS011;35761;48.826;9.238;2024-01-15T06:33:23;16.65;;;7.30;;
49860;SDS011;35761;48.826;9.238;2024-01-15T06:35:48;18.10;;;7.65;;
49860;SDS011;35761;48.826;9.238;2024-01-15T06:38:14;17.23;;;6.97;;
49860;SDS011;35761;48.826;9.238;2024-01-15T06:40:40;18.35;;;8.15;;
49860;SDS011;35761;48.826;9.238;2024-01-15T06:43:13;15.70;;;7.22;;
49860;SDS011;35761;48.826;9.238;2024-01-15T06:45:40;16.35;;;7.05;;
49860;SDS011;35761;48.826;9.238;2024-01-15T06:48:05;16.58;;;7.70;;
49860;SDS011;35761;48.826;9.238;2024-01-15T06:50:32;17.90;;;6.80;;
49860;SDS011;35761;48.826;9.238;2024-01-15T06:52:58;14.55;;;6.78;;
49860;SDS011;35761;48.826;9.238;2024-01-15T06:55:23;14.93;;;6.50;;
49860;SDS011;35761;48.826;9.238;2024-01-15T06:57:49;14.70;;;6.80;;
49860;SDS011;35761;48.826;9.238;2024-01-15T07:00:15;14.75;;;6.50;;
49860;SDS011;35761;48.826;9.238;2024-01-15T07:02:41;14.25;;;6.68;;
49860;SDS011;35761;48.826;9.238;2024-01-15T07:05:06;14.57;;;6.88;;
49860;SDS011;35761;48.826;9.238;2024-01-15T07:07:32;14.95;;;6.97;;
49860;SDS011;35761;48.826;9.238;2024-01-15T07:09:58;16.00;;;7.00;;
49860;SDS011;35761;48.826;9.238;2024-01-15T07:12:23;13.00;;;6.32;;
49860;SDS011;35761;48.826;9.238;2024-01-15T07:14:49;17.52;;;6.80;;
49860;SDS011;35761;48.826;9.238;2024-01-15T07:17:15;16.02;;;6.60;;
49860;SDS011;35761;48.826;9.238;2024-01-15T07:19:40;13.50;;;5.93;;
49860;SDS011;35761;48.826;9.238;2024-01-15T07:22:06;13.85;;;6.55;;
49860;SDS011;35761;48.826;9.238;2024-01-15T07:24:31;18.23;;;7.07;;
49860;SDS011;35761;48.826;9.238;2024-01-15T07:26:59;16.42;;;6.90;;
49860;SDS011;35761;48.826;9.238;2024-01-15T07:29:24;13.13;;;6.43;;
49860;SDS011;35761;48.826;9.238;2024-01-15T07:31:50;15.30;;;6.70;;
49860;SDS011;35761;48.826;9.238;2024-01-15T07:34:16;14.73;;;6.22;;
49860;SDS011;35761;48.826;9.238;2024-01-15T07:36:43;13.00;;;5.82;;
49860;SDS011;35761;48.826;9.238;2024-01-15T07:39:09;15.18;;;6.22;;
49860;SDS011;35761;48.826;9.238;2024-01-15T07:41:35;16.10;;;6.63;;
49860;SDS011;35761;48.826;9.238;2024-01-15T07:44:01;17.65;;;6.55;;
49860;SDS011;35761;48.826;9.238;2024-01-15T07:46:27;17.77;;;7.20;;
49860;SDS011;35761;48.826;9.238;2024-01-15T07:48:52;12.60;;;6.25;;
49860;SDS011;35761;48.826;9.238;2024-01-15T07:51:24;13.07;;;5.97;;
49860;SDS011;35761;48.826;9.238;2024-01-15T07:53:50;15.75;;;6.38;;
49860;SDS011;35761;48.826;9.238;2024-01-15T07:56:17;12.85;;;5.50;;
49860;SDS011;35761;48.826;9.238;2024-01-15T07:58:42;13.77;;;5.68;;
49860;SDS011;35761;48.826;9.238;2024-01-15T08:01:07;13.00;;;5.72;;
49860;SDS011;35761;48.826;9.238;2024-01-15T08:03:33;15.50;;;6.20;;
49860;SDS011;35761;48.826;9.238;2024-01-15T08:05:59;15.73;;;6.88;;
49860;SDS011;35761;48.826;9.238;2024-01-15T08:08:25;13.20;;;5.53;;
49860;SDS011;35761;48.826;9.238;2024-01-15T08:10:53;16.27;;;6.95;;
49860;SDS011;35761;48.826;9.238;2024-01-15T08:13:19;12.60;;;6.45;;
49860;SDS011;35761;48.826;9.238;2024-01-15T08:15:45;15.18;;;6.55;;
49860;SDS011;35761;48.826;9.238;2024-01-15T08:18:11;14.77;;;5.80;;
49860;SDS011;35761;48.826;9.238;2024-01-15T08:20:36;13.82;;;5.68;;
49860;SDS011;35761;48.826;9.238;2024-01-15T08:23:02;14.18;;;5.97;;
49860;SDS011;35761;48.826;9.238;2024-01-15T08:25:28;11.35;;;5.25;;
49860;SDS011;35761;48.826;9.238;2024-01-15T08:27:53;14.77;;;6.90;;
49860;SDS011;35761;48.826;9.238;2024-01-15T08:30:19;16.27;;;5.97;;
49860;SDS011;35761;48.826;9.238;2024-01-15T08:32:45;14.27;;;6.60;;
49860;SDS011;35761;48.826;9.238;2024-01-15T08:35:11;14.07;;;6.65;;
49860;SDS011;35761;48.826;9.238;2024-01-15T08:37:36;17.25;;;7.00;;
49860;SDS011;35761;48.826;9.238;2024-01-15T08:40:03;16.13;;;6.40;;
49860;SDS011;35761;48.826;9.238;2024-01-15T08:42:29;15.88;;;6.63;;
49860;SDS011;35761;48.826;9.238;2024-01-15T08:44:54;16.60;;;6.15;;
49860;SDS011;35761;48.826;9.238;2024-01-15T08:47:20;13.35;;;5.80;;
49860;SDS011;35761;48.826;9.238;2024-01-15T08:49:46;13.30;;;5.97;;
49860;SDS011;35761;48.826;9.238;2024-01-15T08:52:11;13.55;;;5.88;;
49860;SDS011;35761;48.826;9.238;2024-01-15T08:54:37;16.48;;;6.78;;
49860;SDS011;35761;48.826;9.238;2024-01-15T08:57:03;13.00;;;6.07;;
49860;SDS011;35761;48.826;9.238;2024-01-15T08:59:28;15.02;;;6.47;;
49860;SDS011;35761;48.826;9.238;2024-01-15T09:01:54;15.95;;;6.03;;
49860;SDS011;35761;48.826;9.238;2024-01-15T09:04:22;15.00;;;5.80;;
49860;SDS011;35761;48.826;9.238;2024-01-15T09:06:48;11.00;;;5.43;;
49860;SDS011;35761;48.826;9.238;2024-01-15T09:09:13;12.95;;;5.43;;
49860;SDS011;35761;48.826;9.238;2024-01-15T09:11:40;12.45;;;5.10;;
49860;SDS011;35761;48.826;9.238;2024-01-15T09:14:06;11.93;;;4.88;;
49860;SDS011;35761;48.826;9.238;2024-01-15T09:16:31;14.63;;;5.88;;
49860;SDS011;35761;48.826;9.238;2024-01-15T09:18:57;10.50;;;5.00;;
49860;SDS011;35761;48.826;9.238;2024-01-15T09:21:23;10.45;;;5.32;;
49860;SDS011;35761;48.826;9.238;2024-01-15T09:23:50;11.88;;;4.70;;
49860;SDS011;35761;48.826;9.238;2024-01-15T09:26:15;11.27;;;4.32;;
49860;SDS011;35761;48.826;9.238;2024-01-15T09:28:41;11.70;;;5.00;;
49860;SDS011;35761;48.826;9.238;2024-01-15T09:31:07;12.20;;;4.88;;
49860;SDS011;35761;48.826;9.238;2024-01-15T09:33:32;10.13;;;4.13;;
49860;SDS011;35761;48.826;9.238;2024-01-15T09:36:01;9.00;;;4.05;;
49860;SDS011;35761;48.826;9.238;2024-01-15T09:38:29;16.02;;;5.43;;
49860;SDS011;35761;48.826;9.238;2024-01-15T09:40:55;10.55;;;4.05;;
49860;SDS011;35761;48.826;9.238;2024-01-15T09:43:21;11.65;;;5.40;;
49860;SDS011;35761;48.826;9.238;2024-01-15T09:45:46;11.25;;;4.88;;
49860;SDS011;35761;48.826;9.238;2024-01-15T09:48:12;11.32;;;4.63;;
49860;SDS011;35761;48.826;9.238;2024-01-15T09:50:38;9.77;;;3.83;;
49860;SDS011;35761;48.826;9.238;2024-01-15T09:53:04;9.57;;;4.70;;
49860;SDS011;35761;48.826;9.238;2024-01-15T09:55:30;20.42;;;5.00;;
49860;SDS011;35761;48.826;9.238;2024-01-15T09:57:57;19.17;;;4.30;;
49860;SDS011;35761;48.826;9.238;2024-01-15T10:00:25;11.70;;;4.40;;
49860;SDS011;35761;48.826;9.238;2024-01-15T10:02:51;13.48;;;4.45;;
49860;SDS011;35761;48.826;9.238;2024-01-15T10:05:16;10.48;;;4.43;;
49860;SDS011;35761;48.826;9.238;2024-01-15T10:07:42;16.25;;;4.63;;
49860;SDS011;35761;48.826;9.238;2024-01-15T10:10:08;8.55;;;4.10;;
49860;SDS011;35761;48.826;9.238;2024-01-15T10:12:36;13.13;;;4.63;;
49860;SDS011;35761;48.826;9.238;2024-01-15T10:15:01;10.85;;;3.53;;
49860;SDS011;35761;48.826;9.238;2024-01-15T10:17:27;10.15;;;3.65;;
49860;SDS011;35761;48.826;9.238;2024-01-15T10:19:53;14.55;;;4.03;;
49860;SDS011;35761;48.826;9.238;2024-01-15T10:22:18;10.77;;;4.35;;
49860;SDS011;35761;48.826;9.238;2024-01-15T10:24:44;10.68;;;3.83;;
49860;SDS011;35761;48.826;9.238;2024-01-15T10:27:10;7.47;;;3.63;;
49860;SDS011;35761;48.826;9.238;2024-01-15T10:29:36;12.52;;;4.55;;
49860;SDS011;35761;48.826;9.238;2024-01-15T10:32:02;13.98;;;4.55;;
49860;SDS011;35761;48.826;9.238;2024-01-15T10:34:30;12.75;;;4.20;;
49860;SDS011;35761;48.826;9.238;2024-01-15T10:36:55;10.07;;;4.00;;
49860;SDS011;35761;48.826;9.238;2024-01-15T10:39:21;10.30;;;4.07;;
49860;SDS011;35761;48.826;9.238;2024-01-15T10:41:47;13.65;;;4.10;;
49860;SDS011;35761;48.826;9.238;2024-01-15T10:44:13;9.35;;;4.25;;
49860;SDS011;35761;48.826;9.238;2024-01-15T10:46:38;11.45;;;4.07;;
49860;SDS011;35761;48.826;9.238;2024-01-15T10:49:04;14.43;;;4.22;;
49860;SDS011;35761;48.826;9.238;2024-01-15T10:51:29;10.90;;;4.10;;
49860;SDS011;35761;48.826;9.238;2024-01-15T10:53:56;12.85;;;4.10;;
49860;SDS011;35761;48.826;9.238;2024-01-15T10:56:21;6.70;;;3.33;;
49860;SDS011;35761;48.826;9.238;2024-01-15T10:58:47;9.02;;;3.22;;
49860;SDS011;35761;48.826;9.238;2024-01-15T11:01:14;10.07;;;3.35;;
49860;SDS011;35761;48.826;9.238;2024-01-15T11:03:41;9.00;;;3.78;;
49860;SDS011;35761;48.826;9.238;2024-01-15T11:06:17;8.10;;;3.28;;
49860;SDS011;35761;48.826;9.238;2024-01-15T11:08:50;8.18;;;3.42;;
49860;SDS011;35761;48.826;9.238;2024-01-15T11:11:16;7.88;;;3.50;;
49860;SDS011;35761;48.826;9.238;2024-01-15T11:13:43;6.53;;;3.25;;
49860;SDS011;35761;48.826;9.238;2024-01-15T11:16:13;11.63;;;3.55;;
49860;SDS011;35761;48.826;9.238;2024-01-15T11:18:40;9.18;;;3.88;;
49860;SDS011;35761;48.826;9.238;2024-01-15T11:28:52;6.80;;;3.00;;
49860;SDS011;35761;48.826;9.238;2024-01-15T11:31:17;7.32;;;3.58;;
49860;SDS011;35761;48.826;9.238;2024-01-15T11:33:49;7.93;;;4.03;;
49860;SDS011;35761;48.826;9.238;2024-01-15T11:36:15;12.77;;;4.40;;
49860;SDS011;35761;48.826;9.238;2024-01-15T11:38:41;9.27;;;3.30;;
49860;SDS011;35761;48.826;9.238;2024-01-15T11:41:15;8.88;;;3.83;;
49860;SDS011;35761;48.826;9.238;2024-01-15T11:43:41;9.75;;;3.55;;
49860;SDS011;35761;48.826;9.238;2024-01-15T11:46:10;10.23;;;4.55;;
49860;SDS011;35761;48.826;9.238;2024-01-15T11:48:43;11.35;;;4.25;;
49860;SDS011;35761;48.826;9.238;2024-01-15T11:53:44;9.10;;;4.15;;
49860;SDS011;35761;48.826;9.238;2024-01-15T11:56:16;9.77;;;4.15;;
49860;SDS011;35761;48.826;9.238;2024-01-15T11:58:42;9.85;;;4.88;;
49860;SDS011;35761;48.826;9.238;2024-01-15T12:01:09;9.30;;;4.25;;
49860;SDS011;35761;48.826;9.238;2024-01-15T12:03:35;8.60;;;4.38;;
49860;SDS011;35761;48.826;9.238;2024-01-15T12:06:01;10.10;;;4.68;;
49860;SDS011;35761;48.826;9.238;2024-01-15T12:08:26;10.27;;;4.80;;
49860;SDS011;35761;48.826;9.238;2024-01-15T12:10:52;10.40;;;4.45;;
49860;SDS011;35761;48.826;9.238;2024-01-15T12:13:18;9.68;;;4.40;;
49860;SDS011;35761;48.826;9.238;2024-01-15T12:15:44;11.90;;;5.20;;
49860;SDS011;35761;48.826;9.238;2024-01-15T12:18:14;11.85;;;4.40;;
49860;SDS011;35761;48.826;9.238;2024-01-15T12:20:41;11.85;;;4.95;;
49860;SDS011;35761;48.826;9.238;2024-01-15T12:23:07;10.93;;;4.53;;
49860;SDS011;35761;48.826;9.238;2024-01-15T12:25:33;9.60;;;3.95;;
49860;SDS011;35761;48.826;9.238;2024-01-15T12:27:59;12.32;;;5.35;;
49860;SDS011;35761;48.826;9.238;2024-01-15T12:30:26;10.60;;;4.63;;
49860;SDS011;35761;48.826;9.238;2024-01-15T12:32:56;9.45;;;4.05;;
49860;SDS011;35761;48.826;9.238;2024-01-15T12:35:23;10.70;;;4.93;;
49860;SDS011;35761;48.826;9.238;2024-01-15T12:37:49;9.60;;;4.40;;
49860;SDS011;35761;48.826;9.238;2024-01-15T12:40:18;9.27;;;5.00;;
49860;SDS011;35761;48.826;9.238;2024-01-15T12:42:45;17.33;;;5.90;;
49860;SDS011;35761;48.826;9.238;2024-01-15T12:45:11;11.13;;;5.35;;
49860;SDS011;35761;48.826;9.238;2024-01-15T12:47:38;12.35;;;5.05;;
49860;SDS011;35761;48.826;9.238;2024-01-15T12:50:07;8.00;;;4.25;;
49860;SDS011;35761;48.826;9.238;2024-01-15T12:52:34;9.32;;;4.65;;
49860;SDS011;35761;48.826;9.238;2024-01-15T12:54:59;8.68;;;4.50;;
49860;SDS011;35761;48.826;9.238;2024-01-15T12:57:25;11.63;;;5.55;;
49860;SDS011;35761;48.826;9.238;2024-01-15T12:59:50;12.93;;;5.15;;
49860;SDS011;35761;48.826;9.238;2024-01-15T13:02:16;10.38;;;4.75;;
49860;SDS011;35761;48.826;9.238;2024-01-15T13:04:42;10.38;;;4.30;;
49860;SDS011;35761;48.826;9.238;2024-01-15T13:07:07;9.88;;;5.03;;
49860;SDS011;35761;48.826;9.238;2024-01-15T13:09:33;8.98;;;4.47;;
49860;SDS011;35761;48.826;9.238;2024-01-15T13:12:00;10.45;;;4.05;;
49860;SDS011;35761;48.826;9.238;2024-01-15T13:14:26;9.55;;;4.13;;
49860;SDS011;35761;48.826;9.238;2024-01-15T13:16:51;10.88;;;4.32;;
49860;SDS011;35761;48.826;9.238;2024-01-15T13:19:19;7.70;;;4.30;;
49860;SDS011;35761;48.826;9.238;2024-01-15T13:21:44;8.23;;;3.95;;
49860;SDS011;35761;48.826;9.238;2024-01-15T13:24:10;8.68;;;3.60;;
49860;SDS011;35761;48.826;9.238;2024-01-15T13:26:36;9.77;;;4.07;;
49860;SDS011;35761;48.826;9.238;2024-01-15T13:29:02;9.10;;;4.13;;
49860;SDS011;35761;48.826;9.238;2024-01-15T13:31:29;7.35;;;3.80;;
49860;SDS011;35761;48.826;9.238;2024-01-15T13:33:55;6.68;;;3.10;;
49860;SDS011;35761;48.826;9.238;2024-01-15T13:36:21;7.03;;;3.15;;
49860;SDS011;35761;48.826;9.238;2024-01-15T13:38:50;7.30;;;3.65;;
49860;SDS011;35761;48.826;9.238;2024-01-15T13:41:17;6.70;;;3.35;;
49860;SDS011;35761;48.826;9.238;2024-01-15T13:43:50;6.45;;;3.35;;
49860;SDS011;35761;48.826;9.238;2024-01-15T13:46:16;8.32;;;3.70;;
49860;SDS011;35761;48.826;9.238;2024-01-15T13:48:42;9.45;;;4.15;;
49860;SDS011;35761;48.826;9.238;2024-01-15T13:51:08;6.65;;;3.17;;
49860;SDS011;35761;48.826;9.238;2024-01-15T13:53:33;6.65;;;3.05;;
49860;SDS011;35761;48.826;9.238;2024-01-15T13:55:59;5.35;;;2.78;;
49860;SDS011;35761;48.826;9.238;2024-01-15T13:58:24;6.97;;;3.00;;
49860;SDS011;35761;48.826;9.238;2024-01-15T14:00:51;6.78;;;3.17;;
49860;SDS011;35761;48.826;9.238;2024-01-15T14:03:17;5.63;;;2.70;;
49860;SDS011;35761;48.826;9.238;2024-01-15T14:05:43;6.90;;;3.15;;
49860;SDS011;35761;48.826;9.238;2024-01-15T14:08:09;6.03;;;3.05;;
49860;SDS011;35761;48.826;9.238;2024-01-15T14:10:34;6.85;;;3.92;;
49860;SDS011;35761;48.826;9.238;2024-01-15T14:13:00;6.10;;;3.17;;
49860;SDS011;35761;48.826;9.238;2024-01-15T14:15:25;6.05;;;3.35;;
49860;SDS011;35761;48.826;9.238;2024-01-15T14:17:52;6.05;;;2.90;;
49860;SDS011;35761;48.826;9.238;2024-01-15T14:20:18;6.35;;;3.10;;
49860;SDS011;35761;48.826;9.238;2024-01-15T14:22:43;6.72;;;3.58;;
49860;SDS011;35761;48.826;9.238;2024-01-15T14:25:08;10.02;;;3.88;;
49860;SDS011;35761;48.826;9.238;2024-01-15T14:27:34;8.43;;;3.78;;
49860;SDS011;35761;48.826;9.238;2024-01-15T14:30:00;7.50;;;4.20;;
49860;SDS011;35761;48.826;9.238;2024-01-15T14:32:25;7.38;;;3.97;;
49860;SDS011;35761;48.826;9.238;2024-01-15T14:34:51;6.75;;;4.13;;
49860;SDS011;35761;48.826;9.238;2024-01-15T14:37:16;8.50;;;4.80;;
49860;SDS011;35761;48.826;9.238;2024-01-15T14:39:42;6.88;;;4.15;;
49860;SDS011;35761;48.826;9.238;2024-01-15T14:42:08;8.45;;;4.68;;